Airfield :
LOGIN :

Register | Disclaimer

   EN    FR    IT 

 










Legend :    VFR   Marginal VFR   IFR   Intensive IFR   Very Intensive IFR
Visi :
Ceiling :
>= 8 km
>= 3000ft
5 to 8 km
1000 to 3000 ft
1500m to 5 km
500 to 1000 ft
800 to 1500m
200 to 500 ft
< 800m
< 200 ft
Symbols :   Thunderstorms  Fog  Heavy snow  Heavy precipitations  Wind > 20 kt
SIGMETs :     Misc.  Thunderstorms  Icing  Turbulence  Mountain Waves  Volcanic Ashes






- Airport Elevation : 157 ft
- IATA code : SXF


EDDB - Berlin Schönefeld

CURRENT METAR :
  • 151850Z 22013KT CAVOK 06/01 Q1005 NOSIG

EXPIRED METARs :
  • 151820Z 23012KT CAVOK 06/01 Q1005 NOSIG
  • 151750Z 23012KT CAVOK 06/02 Q1004 NOSIG
  • 151720Z 22012KT CAVOK 07/02 Q1004 NOSIG
  • 151650Z 23012KT CAVOK 06/02 Q1003 NOSIG
  • 151620Z 22013KT CAVOK 07/02 Q1003 NOSIG

TAF TAF EDDB
Valid from the 15 at 18:00 until the 16 at 18:00 UTC


151700Z 1518/1618 23011KT CAVOK
BECMG 1604/1606 15006KT



MET'MAP, your aeronautical weather chart ! - Copyright ORBIFLY December 2007 - Disclaimer

ORBIFLY MET'MAP TEAM :

Programming & Development : Alexandra Zaïnal
Concept & original design : Baudouin d'Aumeries
Assistance for programming : Marc-Olivier Méhu
Technical & hardware support : Manuel Goepfert

Contact : metmap@orbifly.com




SOURCES & CREDITS :

   NOAA